Time;durP1;ratioP1;P1;durP2;ratioP2;P2;SDS_P1;SDS_P2;PMS_P1;PMS_P2;Temp;Humidity;BMP_temperature;BMP_pressure;BME280_temperature;BME280_humidity;BME280_pressure;Samples;Min_cycle;Max_cycle;Signal;HPM_P1;HPM_P2
2023/10/08 00:01:41;;;;;;;5.47;3.17;;;11.30;84.80;;;;;;6287791;28;20764;-84
2023/10/08 00:04:44;;;;;;;8.57;3.57;;;11.30;84.70;;;;;;6288436;28;20242;-80
2023/10/08 00:07:48;;;;;;;6.93;3.17;;;11.30;84.60;;;;;;6286863;28;20320;-82
2023/10/08 00:11:03;;;;;;;4.63;3.30;;;11.30;84.60;;;;;;6279895;28;20228;-82
2023/10/08 00:14:09;;;;;;;4.30;3.87;;;11.30;84.70;;;;;;6288666;28;20225;-82
2023/10/08 00:17:13;;;;;;;6.07;3.87;;;11.30;84.80;;;;;;6291383;28;20289;-81
2023/10/08 00:20:25;;;;;;;4.37;3.90;;;11.30;84.50;;;;;;6289378;28;20233;-84
2023/10/08 00:23:30;;;;;;;4.63;3.57;;;11.30;84.70;;;;;;6292413;28;20276;-75
2023/10/08 00:26:39;;;;;;;4.10;3.70;;;11.40;84.70;;;;;;6290625;28;20363;-82
2023/10/08 00:29:43;;;;;;;6.00;3.77;;;11.30;84.40;;;;;;6296122;28;20253;-75
2023/10/08 00:32:47;;;;;;;3.83;3.63;;;11.30;84.50;;;;;;6292332;28;20672;-82
2023/10/08 00:35:50;;;;;;;5.30;4.07;;;11.30;84.50;;;;;;6285268;28;21060;-82
2023/10/08 00:38:55;;;;;;;6.00;3.57;;;11.30;84.50;;;;;;6284292;28;20241;-79
2023/10/08 00:41:59;;;;;;;4.20;3.80;;;11.30;84.50;;;;;;6290124;28;20263;-80
2023/10/08 00:45:05;;;;;;;4.80;3.63;;;11.30;84.40;;;;;;6283262;28;20867;-79
2023/10/08 00:48:09;;;;;;;6.50;3.63;;;11.30;84.50;;;;;;6276091;28;20330;-81
2023/10/08 00:51:25;;;;;;;6.70;3.60;;;11.30;84.50;;;;;;6262045;28;20629;-84
2023/10/08 00:54:32;;;;;;;5.43;4.00;;;11.30;84.50;;;;;;6286109;28;20234;-81
2023/10/08 00:57:42;;;;;;;5.00;3.77;;;11.30;84.50;;;;;;6279220;28;20846;-80
2023/10/08 01:00:47;;;;;;;5.07;3.43;;;11.30;84.50;;;;;;6290538;28;20234;-79
2023/10/08 01:03:50;;;;;;;5.30;3.20;;;11.30;84.30;;;;;;6279914;28;20237;-80
2023/10/08 01:06:59;;;;;;;8.10;3.93;;;11.30;84.40;;;;;;6277982;28;20823;-81
2023/10/08 01:10:10;;;;;;;3.87;3.57;;;11.30;84.20;;;;;;6283555;28;20844;-81
2023/10/08 01:13:19;;;;;;;6.97;4.03;;;11.20;84.30;;;;;;6288603;28;20245;-81
2023/10/08 01:16:26;;;;;;;4.67;4.07;;;11.20;84.20;;;;;;6288085;28;20233;-82
2023/10/08 01:19:31;;;;;;;5.37;4.63;;;11.10;84.00;;;;;;6289087;28;20277;-81
2023/10/08 01:22:39;;;;;;;3.70;3.37;;;11.10;83.80;;;;;;6287069;28;20241;-83
2023/10/08 01:25:42;;;;;;;5.20;4.03;;;11.10;84.00;;;;;;6279463;28;20262;-81
2023/10/08 01:28:45;;;;;;;7.40;4.23;;;11.20;84.20;;;;;;6287303;28;20263;-81
2023/10/08 01:31:49;;;;;;;4.33;3.80;;;11.20;84.20;;;;;;6282082;28;20856;-82
2023/10/08 01:34:53;;;;;;;4.57;4.23;;;11.20;84.30;;;;;;6286816;28;20701;-80
2023/10/08 01:37:59;;;;;;;5.00;4.17;;;11.20;84.10;;;;;;6270876;28;20314;-78
2023/10/08 01:41:10;;;;;;;7.07;4.40;;;11.10;84.20;;;;;;6276103;28;20321;-79
2023/10/08 01:44:13;;;;;;;6.03;4.00;;;11.10;84.20;;;;;;6289264;28;20264;-82
2023/10/08 01:47:17;;;;;;;5.93;4.00;;;11.10;84.20;;;;;;6285580;28;20239;-81
2023/10/08 01:50:22;;;;;;;4.90;3.50;;;11.10;83.90;;;;;;6280808;28;20232;-79
2023/10/08 01:53:27;;;;;;;7.03;3.90;;;11.10;84.00;;;;;;6279168;28;20237;-79
2023/10/08 01:56:30;;;;;;;6.30;4.23;;;11.10;84.00;;;;;;6282120;28;20241;-81
2023/10/08 01:59:34;;;;;;;4.10;3.70;;;11.10;84.00;;;;;;6288732;28;20241;-81
2023/10/08 02:02:37;;;;;;;4.70;3.90;;;11.10;84.00;;;;;;6283175;28;20253;-80
2023/10/08 02:05:41;;;;;;;4.47;3.90;;;11.10;84.10;;;;;;6281348;28;20249;-81
2023/10/08 02:08:47;;;;;;;9.20;4.10;;;11.10;84.30;;;;;;6281074;28;20245;-80
2023/10/08 02:11:51;;;;;;;6.77;4.00;;;11.00;84.30;;;;;;6279247;28;20229;-83
2023/10/08 02:14:54;;;;;;;5.43;3.60;;;11.00;84.50;;;;;;6289600;28;20391;-82
2023/10/08 02:17:58;;;;;;;5.03;4.53;;;11.00;84.60;;;;;;6272347;28;20234;-81
2023/10/08 02:21:02;;;;;;;9.60;4.53;;;11.00;84.50;;;;;;6281883;28;20729;-82
2023/10/08 02:24:08;;;;;;;4.90;4.20;;;11.10;84.50;;;;;;6277658;28;20237;-80
2023/10/08 02:27:15;;;;;;;6.20;4.70;;;11.00;84.60;;;;;;6280063;28;20232;-80
2023/10/08 02:30:18;;;;;;;7.40;5.17;;;11.00;84.60;;;;;;6278278;28;20257;-80
2023/10/08 02:33:21;;;;;;;8.07;5.47;;;11.10;84.80;;;;;;6285100;28;20842;-81
2023/10/08 02:36:27;;;;;;;9.63;5.30;;;11.00;84.80;;;;;;6281923;28;20225;-79
2023/10/08 02:39:32;;;;;;;8.27;5.30;;;11.00;85.00;;;;;;6275349;28;20267;-82
2023/10/08 02:42:35;;;;;;;8.33;5.30;;;11.10;85.00;;;;;;6269647;28;20237;-82
2023/10/08 02:45:39;;;;;;;6.73;5.73;;;11.00;84.50;;;;;;6279646;28;20379;-80
2023/10/08 02:48:42;;;;;;;9.07;5.43;;;11.10;84.60;;;;;;6282630;28;20265;-83
2023/10/08 02:51:45;;;;;;;10.40;6.37;;;11.10;84.70;;;;;;6275419;28;20264;-80
2023/10/08 02:54:52;;;;;;;9.17;6.20;;;11.10;84.70;;;;;;6283879;28;20261;-82
2023/10/08 02:57:58;;;;;;;8.80;5.37;;;11.10;84.60;;;;;;6278786;28;20326;-82
2023/10/08 03:01:01;;;;;;;9.00;5.63;;;11.10;84.70;;;;;;6278729;28;20240;-79
2023/10/08 03:04:14;;;;;;;8.10;6.37;;;11.10;84.60;;;;;;6271176;28;20372;-81
2023/10/08 03:07:22;;;;;;;9.93;5.90;;;11.00;84.50;;;;;;6278482;28;20317;-81
2023/10/08 03:10:33;;;;;;;10.90;6.07;;;11.10;84.50;;;;;;6286325;28;20236;-81
2023/10/08 03:13:38;;;;;;;10.20;6.00;;;11.00;84.10;;;;;;6286012;28;20229;-82
2023/10/08 03:16:42;;;;;;;10.60;5.70;;;11.00;84.20;;;;;;6273473;28;20293;-81
2023/10/08 03:19:45;;;;;;;6.57;5.80;;;11.00;84.30;;;;;;6286559;28;20237;-82
2023/10/08 03:22:49;;;;;;;7.83;5.33;;;11.00;84.00;;;;;;6286432;28;20233;-78
2023/10/08 03:26:00;;;;;;;12.17;5.83;;;11.00;84.00;;;;;;6267887;28;20367;-81
2023/10/08 03:29:08;;;;;;;10.23;6.07;;;11.00;84.20;;;;;;6282190;28;20233;-82
2023/10/08 03:32:15;;;;;;;12.10;6.30;;;11.00;84.30;;;;;;6262871;28;20328;-80
2023/10/08 03:35:27;;;;;;;10.20;5.83;;;11.00;84.10;;;;;;6280619;28;20264;-81
2023/10/08 03:38:44;;;;;;;6.63;4.90;;;10.90;84.00;;;;;;6264264;28;20615;-84
2023/10/08 03:41:59;;;;;;;7.37;5.60;;;11.00;84.00;;;;;;6271490;28;20291;-81
2023/10/08 03:45:12;;;;;;;5.43;4.90;;;10.90;83.90;;;;;;6273398;28;20240;-82
2023/10/08 03:48:16;;;;;;;10.10;5.37;;;11.00;83.90;;;;;;6273571;28;20385;-81
2023/10/08 03:51:21;;;;;;;8.07;5.80;;;10.90;83.60;;;;;;6285653;28;20233;-77
2023/10/08 03:54:29;;;;;;;6.30;5.73;;;10.90;83.60;;;;;;6283081;28;20244;-82
2023/10/08 03:57:44;;;;;;;6.70;5.97;;;10.90;83.90;;;;;;6262115;28;20226;-81
2023/10/08 04:00:47;;;;;;;10.27;6.33;;;10.90;84.00;;;;;;6285008;28;20654;-81
2023/10/08 04:03:58;;;;;;;9.43;5.30;;;10.90;84.00;;;;;;6283873;28;20229;-82
2023/10/08 04:13:44;;;;;;;8.67;5.33;;;10.90;83.90;;;;;;6285661;28;20248;-83
2023/10/08 04:16:51;;;;;;;11.63;5.70;;;10.80;83.80;;;;;;6286285;28;20242;-80
2023/10/08 04:19:58;;;;;;;7.70;5.70;;;10.80;83.70;;;;;;6281991;28;20792;-80
2023/10/08 04:23:02;;;;;;;11.57;5.83;;;10.80;83.80;;;;;;6289628;28;20326;-82
2023/10/08 04:26:06;;;;;;;11.03;6.37;;;10.80;83.50;;;;;;6281730;28;20236;-83
2023/10/08 04:29:16;;;;;;;7.90;4.77;;;10.70;83.40;;;;;;6277313;28;20359;-82
2023/10/08 04:32:24;;;;;;;10.77;5.83;;;10.70;83.40;;;;;;6278929;28;20244;-78
2023/10/08 04:35:28;;;;;;;8.23;5.10;;;10.70;83.60;;;;;;6284509;28;20340;-82
2023/10/08 04:38:39;;;;;;;7.67;5.53;;;10.70;83.70;;;;;;6268912;28;20230;-81
2023/10/08 04:41:43;;;;;;;5.73;4.60;;;10.70;83.60;;;;;;6287130;28;20910;-82
2023/10/08 04:44:48;;;;;;;5.73;5.10;;;10.70;83.60;;;;;;6284545;28;20245;-83
2023/10/08 04:47:52;;;;;;;15.40;5.50;;;10.70;83.70;;;;;;6277787;28;20233;-82
2023/10/08 04:50:59;;;;;;;9.23;5.47;;;10.70;83.70;;;;;;6281643;28;20363;-81
2023/10/08 04:54:04;;;;;;;8.43;5.27;;;10.70;83.60;;;;;;6286379;28;20712;-82
2023/10/08 04:57:14;;;;;;;7.07;4.60;;;10.70;83.60;;;;;;6282793;28;20233;-80
2023/10/08 05:00:40;;;;;;;5.57;4.40;;;10.70;83.60;;;;;;6283054;28;20237;-82
2023/10/08 05:04:07;;;;;;;11.47;5.80;;;10.60;83.60;;;;;;6285172;28;20247;-82
2023/10/08 05:07:39;;;;;;;8.43;5.00;;;10.50;83.70;;;;;;6280756;28;20985;-79
2023/10/08 05:14:16;;;;;;;10.30;5.80;;;10.40;84.00;;;;;;6280797;28;20291;-82
2023/10/08 05:17:22;;;;;;;7.77;5.77;;;10.40;84.10;;;;;;6287573;28;20245;-82
2023/10/08 05:20:58;;;;;;;5.07;4.67;;;10.40;84.00;;;;;;6286378;28;20251;-82
2023/10/08 05:24:13;;;;;;;7.47;5.57;;;10.30;84.00;;;;;;6285745;28;20302;-81
2023/10/08 05:27:37;;;;;;;5.00;4.60;;;10.30;84.10;;;;;;6287714;28;20236;-81
2023/10/08 05:30:53;;;;;;;8.70;5.60;;;10.20;84.10;;;;;;6284631;28;20234;-81
2023/10/08 05:34:14;;;;;;;4.97;4.33;;;10.20;84.20;;;;;;6281124;28;20455;-82
2023/10/08 05:37:32;;;;;;;11.93;5.87;;;10.20;84.30;;;;;;6276970;28;20310;-81
2023/10/08 05:41:04;;;;;;;6.83;5.23;;;10.20;84.50;;;;;;6271369;28;20240;-81
2023/10/08 05:44:23;;;;;;;8.63;5.40;;;10.20;84.60;;;;;;6280566;28;20233;-81
2023/10/08 05:47:38;;;;;;;11.27;6.63;;;10.20;84.70;;;;;;6276993;28;20229;-81
2023/10/08 05:51:12;;;;;;;9.90;5.43;;;10.20;84.70;;;;;;6271179;28;20256;-82
2023/10/08 05:54:35;;;;;;;7.70;5.70;;;10.20;84.60;;;;;;6274673;28;20242;-80
2023/10/08 05:57:46;;;;;;;5.30;4.80;;;10.20;84.60;;;;;;6279079;28;20226;-83
2023/10/08 06:01:08;;;;;;;12.57;6.77;;;10.20;84.70;;;;;;6283674;28;20732;-83
2023/10/08 06:04:42;;;;;;;7.77;5.17;;;10.30;84.70;;;;;;6284232;28;20244;-83
2023/10/08 06:07:48;;;;;;;7.00;5.57;;;10.40;84.70;;;;;;6279278;28;20238;-84
2023/10/08 06:11:00;;;;;;;6.80;6.07;;;10.40;84.30;;;;;;6285512;28;20713;-82
2023/10/08 06:14:13;;;;;;;9.87;5.70;;;10.40;84.30;;;;;;6279095;28;20245;-80
2023/10/08 06:17:34;;;;;;;5.73;5.17;;;10.40;84.20;;;;;;6284810;28;20838;-81
2023/10/08 06:20:42;;;;;;;5.50;5.00;;;10.40;84.00;;;;;;6270306;28;20304;-78
2023/10/08 06:23:48;;;;;;;5.20;4.70;;;10.40;83.90;;;;;;6281523;28;20284;-83
2023/10/08 06:26:51;;;;;;;4.80;4.40;;;10.50;84.20;;;;;;6284488;28;20236;-83
2023/10/08 06:29:55;;;;;;;5.53;4.83;;;10.60;84.40;;;;;;6280329;28;20225;-80
2023/10/08 06:32:58;;;;;;;6.43;5.33;;;10.80;84.10;;;;;;6287264;28;20233;-82
2023/10/08 06:36:13;;;;;;;6.90;4.80;;;11.00;83.70;;;;;;6274980;28;20229;-78
2023/10/08 06:39:19;;;;;;;5.30;4.80;;;11.00;83.20;;;;;;6271507;28;20263;-81
2023/10/08 06:42:27;;;;;;;4.40;4.10;;;11.10;83.10;;;;;;6280843;28;20234;-80
2023/10/08 06:45:32;;;;;;;4.97;4.20;;;11.10;82.30;;;;;;6276540;28;20252;-81
2023/10/08 06:48:36;;;;;;;4.53;4.13;;;11.10;81.80;;;;;;6271219;28;20660;-83
2023/10/08 06:51:41;;;;;;;5.53;4.07;;;11.10;80.90;;;;;;6283108;28;20237;-81
2023/10/08 06:54:46;;;;;;;3.90;3.27;;;11.10;79.80;;;;;;6273267;28;20245;-79
2023/10/08 06:57:49;;;;;;;3.93;3.73;;;11.20;79.50;;;;;;6281471;28;20744;-81
2023/10/08 07:00:55;;;;;;;4.27;3.53;;;11.30;78.70;;;;;;6280731;28;22223;-81
2023/10/08 07:04:03;;;;;;;6.00;3.63;;;11.30;77.20;;;;;;6279879;28;20233;-80
2023/10/08 07:07:09;;;;;;;3.40;3.20;;;11.20;77.20;;;;;;6274486;28;20233;-77
2023/10/08 07:10:16;;;;;;;4.30;4.00;;;11.20;76.70;;;;;;6275226;28;20253;-83
2023/10/08 07:13:21;;;;;;;3.20;3.10;;;11.10;76.80;;;;;;6268826;28;20237;-82
2023/10/08 07:16:27;;;;;;;3.33;3.10;;;11.10;76.10;;;;;;6280721;28;20265;-79
2023/10/08 07:19:36;;;;;;;3.80;3.50;;;11.10;76.50;;;;;;6268314;28;20241;-78
2023/10/08 07:22:43;;;;;;;3.20;3.10;;;11.10;76.50;;;;;;6285368;28;20239;-79
2023/10/08 07:26:01;;;;;;;3.53;3.10;;;11.20;73.90;;;;;;6284977;28;20257;-80
2023/10/08 07:29:08;;;;;;;5.40;3.47;;;11.20;74.00;;;;;;6272360;28;20233;-78
2023/10/08 07:32:12;;;;;;;4.13;3.03;;;11.10;74.50;;;;;;6282327;28;20233;-80
2023/10/08 07:35:23;;;;;;;4.53;4.20;;;11.20;74.80;;;;;;6301166;28;20735;-81
2023/10/08 07:38:28;;;;;;;4.33;3.30;;;11.20;74.90;;;;;;6296307;28;20328;-80
2023/10/08 07:41:33;;;;;;;3.37;3.10;;;11.30;75.00;;;;;;6291821;28;20236;-79
2023/10/08 07:44:38;;;;;;;3.43;3.13;;;11.30;73.90;;;;;;6288483;28;20243;-80
2023/10/08 07:47:42;;;;;;;4.33;2.60;;;11.40;74.10;;;;;;6299172;28;20233;-79
2023/10/08 07:50:46;;;;;;;3.03;2.83;;;11.40;73.20;;;;;;6299969;28;20283;-78
2023/10/08 07:53:54;;;;;;;2.90;2.80;;;11.40;73.00;;;;;;6296832;28;20238;-82
2023/10/08 07:57:08;;;;;;;3.13;2.70;;;11.40;72.90;;;;;;6285492;28;20228;-79
2023/10/08 08:00:22;;;;;;;3.73;3.47;;;11.50;72.40;;;;;;6288296;28;20234;-81
2023/10/08 08:03:26;;;;;;;2.87;2.70;;;11.70;71.80;;;;;;6279046;28;20245;-81
2023/10/08 08:06:31;;;;;;;3.60;3.30;;;11.70;71.90;;;;;;6292192;28;20525;-80
2023/10/08 08:09:37;;;;;;;2.87;2.67;;;11.70;72.50;;;;;;6290095;28;20236;-80
2023/10/08 08:12:42;;;;;;;3.20;2.90;;;11.80;72.60;;;;;;6287591;28;20229;-76
2023/10/08 08:15:50;;;;;;;2.90;2.80;;;11.90;72.70;;;;;;6288519;28;20324;-81
2023/10/08 08:19:01;;;;;;;2.70;2.57;;;11.90;72.50;;;;;;6283712;28;20754;-80
2023/10/08 08:22:04;;;;;;;3.03;2.83;;;12.00;70.80;;;;;;6287138;28;20741;-81
2023/10/08 08:25:15;;;;;;;6.83;4.27;;;11.90;70.30;;;;;;6283310;28;20241;-82
2023/10/08 08:28:20;;;;;;;2.90;2.80;;;12.00;70.20;;;;;;6284450;28;20233;-79
2023/10/08 08:31:26;;;;;;;3.47;3.17;;;12.10;67.20;;;;;;6284539;28;20230;-81
2023/10/08 08:34:29;;;;;;;2.40;2.40;;;12.10;67.90;;;;;;6287790;28;20353;-82
2023/10/08 08:37:32;;;;;;;2.50;2.50;;;12.30;68.70;;;;;;6287191;28;20913;-82
2023/10/08 08:40:35;;;;;;;3.47;2.60;;;12.40;69.40;;;;;;6292004;28;20225;-83
2023/10/08 08:43:44;;;;;;;2.30;2.20;;;12.50;68.80;;;;;;6284970;28;20890;-82
2023/10/08 08:46:48;;;;;;;2.23;2.23;;;12.50;65.10;;;;;;6307229;28;20237;-75
2023/10/08 08:49:55;;;;;;;2.20;2.20;;;12.50;65.20;;;;;;6321769;28;20221;-75
2023/10/08 08:52:58;;;;;;;2.57;2.40;;;12.70;64.50;;;;;;6321432;28;20299;-75
2023/10/08 08:56:03;;;;;;;2.17;2.17;;;12.80;64.90;;;;;;6320595;28;20240;-74
2023/10/08 08:59:11;;;;;;;2.43;2.33;;;12.80;64.50;;;;;;6316244;28;20229;-79
2023/10/08 09:02:17;;;;;;;2.50;1.90;;;12.90;63.10;;;;;;6318941;28;20256;-80
2023/10/08 09:05:27;;;;;;;2.47;2.27;;;13.10;61.30;;;;;;6315114;28;20274;-80
2023/10/08 09:08:34;;;;;;;2.50;2.40;;;13.10;61.50;;;;;;6319734;28;20214;-79
2023/10/08 09:11:41;;;;;;;2.93;2.70;;;13.10;62.00;;;;;;6315356;28;20285;-82
2023/10/08 09:14:47;;;;;;;2.67;2.57;;;13.10;61.80;;;;;;6313840;28;20225;-80
2023/10/08 09:17:51;;;;;;;2.60;2.40;;;13.10;61.20;;;;;;6315639;28;20335;-79
2023/10/08 09:20:55;;;;;;;3.20;2.40;;;13.10;60.50;;;;;;6313111;28;20221;-80
2023/10/08 09:23:58;;;;;;;3.70;3.50;;;13.00;61.80;;;;;;6317879;28;20221;-84
2023/10/08 09:27:02;;;;;;;2.90;2.80;;;13.10;62.30;;;;;;6304587;28;20225;-81
2023/10/08 09:30:19;;;;;;;2.37;2.27;;;13.30;62.80;;;;;;6310605;28;20253;-81
2023/10/08 09:33:22;;;;;;;2.40;2.30;;;13.50;58.80;;;;;;6309033;28;20222;-81
2023/10/08 09:36:31;;;;;;;2.93;2.50;;;13.50;59.50;;;;;;6318683;28;20232;-79
2023/10/08 09:39:35;;;;;;;2.10;2.10;;;13.70;59.80;;;;;;6315077;28;20228;-79
2023/10/08 09:42:39;;;;;;;3.67;2.73;;;13.80;59.60;;;;;;6321192;28;20224;-79
2023/10/08 09:45:47;;;;;;;2.17;2.17;;;13.80;60.10;;;;;;6316140;28;20213;-79
2023/10/08 09:48:52;;;;;;;2.20;2.20;;;13.90;59.70;;;;;;6305075;28;20253;-79
2023/10/08 09:51:56;;;;;;;2.30;2.30;;;13.90;57.50;;;;;;6316695;28;20221;-80
2023/10/08 09:55:03;;;;;;;2.23;2.20;;;14.00;57.00;;;;;;6316422;28;20230;-80
2023/10/08 09:58:09;;;;;;;2.00;2.00;;;14.10;56.00;;;;;;6311593;28;20236;-78
2023/10/08 10:01:14;;;;;;;1.93;1.93;;;14.20;54.80;;;;;;6301322;28;20221;-81
2023/10/08 10:04:25;;;;;;;2.00;2.00;;;14.20;53.90;;;;;;6319803;28;20225;-82
2023/10/08 10:07:29;;;;;;;2.10;2.00;;;14.40;54.20;;;;;;6302967;28;20225;-80
2023/10/08 10:10:34;;;;;;;2.43;2.20;;;14.40;52.00;;;;;;6316851;28;20266;-79
2023/10/08 10:13:44;;;;;;;1.90;1.80;;;14.50;52.00;;;;;;6299326;28;20234;-78
2023/10/08 10:17:10;;;;;;;2.10;2.00;;;14.60;52.60;;;;;;6303154;28;20913;-80
2023/10/08 10:20:21;;;;;;;1.90;1.90;;;14.70;51.50;;;;;;6283086;28;20241;-78
2023/10/08 10:23:39;;;;;;;1.97;1.77;;;14.50;51.30;;;;;;6280472;28;20287;-82
2023/10/08 10:26:47;;;;;;;1.97;1.87;;;14.60;51.80;;;;;;6287382;28;20245;-75
2023/10/08 10:29:52;;;;;;;1.70;1.70;;;14.80;52.40;;;;;;6288310;28;20233;-82
2023/10/08 10:33:00;;;;;;;1.80;1.77;;;15.10;48.40;;;;;;6298264;28;20239;-81
2023/10/08 10:36:08;;;;;;;1.80;1.80;;;15.20;47.70;;;;;;6287254;28;20243;-84
2023/10/08 10:39:16;;;;;;;1.90;1.90;;;15.30;47.70;;;;;;6284263;28;20244;-83
2023/10/08 10:42:21;;;;;;;1.80;1.80;;;15.40;48.00;;;;;;6287173;28;20233;-81
2023/10/08 10:45:43;;;;;;;1.80;1.80;;;15.50;48.80;;;;;;6271343;28;20611;-82
2023/10/08 10:49:04;;;;;;;1.80;1.80;;;15.40;50.40;;;;;;6296802;28;20343;-81
2023/10/08 10:52:11;;;;;;;2.20;2.20;;;14.90;47.20;;;;;;6284223;28;20226;-85
2023/10/08 10:55:31;;;;;;;2.03;1.93;;;14.60;49.40;;;;;;6280025;28;20241;-82
2023/10/08 10:58:39;;;;;;;2.00;2.00;;;14.30;49.10;;;;;;6280291;28;20325;-80
2023/10/08 11:01:52;;;;;;;1.80;1.80;;;14.60;46.60;;;;;;6283333;28;20297;-80
2023/10/08 11:05:07;;;;;;;2.03;2.03;;;14.90;47.10;;;;;;6286905;28;20244;-83
2023/10/08 11:08:14;;;;;;;2.00;1.90;;;15.20;46.40;;;;;;6274944;28;20249;-84
2023/10/08 11:11:19;;;;;;;2.03;2.03;;;15.30;48.10;;;;;;6274861;28;20321;-80
2023/10/08 11:14:22;;;;;;;1.93;1.83;;;15.30;47.60;;;;;;6286188;28;20889;-80
2023/10/08 11:17:28;;;;;;;2.10;2.00;;;15.30;48.30;;;;;;6283829;28;20233;-85
2023/10/08 11:20:37;;;;;;;2.17;2.07;;;15.30;48.00;;;;;;6285389;28;20229;-82
2023/10/08 11:23:46;;;;;;;2.13;1.90;;;15.60;47.70;;;;;;6285042;28;20354;-84
2023/10/08 11:27:02;;;;;;;2.10;1.93;;;15.80;47.10;;;;;;6274593;28;20632;-81
2023/10/08 11:30:10;;;;;;;1.83;1.83;;;15.80;47.00;;;;;;6285116;28;20279;-81
2023/10/08 11:33:16;;;;;;;2.20;2.10;;;15.80;46.50;;;;;;6282466;28;20233;-83
2023/10/08 11:36:27;;;;;;;1.90;1.80;;;15.60;46.40;;;;;;6283019;28;20290;-78
2023/10/08 11:39:45;;;;;;;2.40;2.30;;;15.40;46.30;;;;;;6286803;28;20233;-83
2023/10/08 11:42:51;;;;;;;2.00;2.00;;;15.50;47.30;;;;;;6287648;28;20321;-83
2023/10/08 11:45:54;;;;;;;2.37;2.27;;;15.60;46.50;;;;;;6280815;28;20232;-81
2023/10/08 11:49:03;;;;;;;1.90;1.90;;;15.80;47.30;;;;;;6279475;28;20919;-81
2023/10/08 11:52:11;;;;;;;1.90;1.90;;;15.80;47.90;;;;;;6285591;28;20312;-80
2023/10/08 11:55:18;;;;;;;1.80;1.80;;;16.00;49.00;;;;;;6272047;28;20232;-81
2023/10/08 11:58:35;;;;;;;1.80;1.70;;;16.20;46.80;;;;;;6275513;28;20225;-81
2023/10/08 12:01:42;;;;;;;2.07;2.07;;;16.40;45.50;;;;;;6274786;28;20646;-81
2023/10/08 12:04:47;;;;;;;2.90;2.80;;;16.50;45.80;;;;;;6276229;28;20242;-80
2023/10/08 12:07:57;;;;;;;2.50;2.40;;;16.40;45.40;;;;;;6278765;28;20225;-81
2023/10/08 12:11:01;;;;;;;2.00;1.90;;;16.50;46.80;;;;;;6282519;28;20225;-81
2023/10/08 12:14:05;;;;;;;2.13;1.93;;;16.80;45.80;;;;;;6287961;28;20245;-81
2023/10/08 12:17:11;;;;;;;1.70;1.70;;;16.90;44.50;;;;;;6289287;28;20371;-79
2023/10/08 12:20:23;;;;;;;1.90;1.90;;;16.90;44.10;;;;;;6289614;28;20221;-79
2023/10/08 12:23:31;;;;;;;1.93;1.93;;;16.80;44.60;;;;;;6280115;28;20332;-80
2023/10/08 12:26:36;;;;;;;2.10;2.10;;;16.30;45.50;;;;;;6288032;28;20226;-80
2023/10/08 12:29:39;;;;;;;1.90;1.80;;;16.30;46.60;;;;;;6285731;28;20234;-82
2023/10/08 12:32:46;;;;;;;2.30;2.20;;;16.40;47.30;;;;;;6281398;28;20868;-84
2023/10/08 12:35:49;;;;;;;2.50;1.90;;;16.40;47.30;;;;;;6282075;28;20229;-81
2023/10/08 12:38:57;;;;;;;2.00;1.90;;;16.40;46.40;;;;;;6285711;28;20285;-82
2023/10/08 12:42:04;;;;;;;2.07;1.97;;;16.30;45.00;;;;;;6284336;28;20225;-80
2023/10/08 12:45:12;;;;;;;1.97;1.83;;;16.10;45.70;;;;;;6280930;28;20242;-83
2023/10/08 12:48:15;;;;;;;1.87;1.87;;;16.20;45.30;;;;;;6284722;28;20343;-83
2023/10/08 12:51:23;;;;;;;1.90;1.90;;;16.00;46.10;;;;;;6283128;28;20233;-80
2023/10/08 12:54:33;;;;;;;1.77;1.70;;;16.20;47.50;;;;;;6268848;28;20289;-83
2023/10/08 12:57:37;;;;;;;2.23;2.13;;;16.50;46.40;;;;;;6285230;28;20371;-80
2023/10/08 13:00:41;;;;;;;2.03;2.00;;;16.60;46.70;;;;;;6285018;28;20245;-81
2023/10/08 13:03:48;;;;;;;2.13;2.03;;;16.70;46.00;;;;;;6282950;28;20736;-77
2023/10/08 13:06:51;;;;;;;2.10;1.90;;;16.80;46.50;;;;;;6284010;28;20271;-77
2023/10/08 13:09:58;;;;;;;2.10;2.00;;;16.50;45.20;;;;;;6279585;28;20626;-77
2023/10/08 13:13:01;;;;;;;2.73;2.60;;;16.50;46.50;;;;;;6275232;28;20241;-77
2023/10/08 13:16:07;;;;;;;2.13;2.13;;;16.40;46.50;;;;;;6275791;28;21346;-80
2023/10/08 13:19:11;;;;;;;2.00;1.90;;;16.40;46.30;;;;;;6281377;28;20709;-79
2023/10/08 13:22:19;;;;;;;1.80;1.80;;;16.50;46.70;;;;;;6276214;28;20375;-79
2023/10/08 13:25:25;;;;;;;2.40;2.30;;;16.80;47.00;;;;;;6283993;28;20306;-78
2023/10/08 13:28:30;;;;;;;1.70;1.70;;;16.90;45.90;;;;;;6286343;28;20232;-85
2023/10/08 13:31:36;;;;;;;1.87;1.87;;;16.90;46.30;;;;;;6276008;28;20225;-86
2023/10/08 13:34:39;;;;;;;1.87;1.80;;;17.00;47.20;;;;;;6274454;28;20237;-83
2023/10/08 13:37:43;;;;;;;3.80;1.90;;;17.20;47.20;;;;;;6283314;28;20770;-82
2023/10/08 13:44:06;;;;;;;1.83;1.73;;;17.20;45.70;;;;;;6277408;28;20264;-76
2023/10/08 13:47:14;;;;;;;1.60;1.60;;;17.20;47.70;;;;;;6281092;28;20237;-80
2023/10/08 13:50:18;;;;;;;1.80;1.70;;;17.10;46.30;;;;;;6286116;28;20237;-85
2023/10/08 13:53:21;;;;;;;1.90;1.90;;;16.90;46.80;;;;;;6284921;28;20879;-85
2023/10/08 13:56:26;;;;;;;1.90;1.90;;;16.40;46.70;;;;;;6275942;28;20800;-76
2023/10/08 13:59:31;;;;;;;2.30;1.87;;;16.00;47.10;;;;;;6278960;28;20257;-83
2023/10/08 14:02:37;;;;;;;1.90;1.90;;;15.60;47.80;;;;;;6279552;28;20249;-83
2023/10/08 14:05:41;;;;;;;1.90;1.90;;;15.60;47.70;;;;;;6272872;28;20241;-75
2023/10/08 14:08:51;;;;;;;1.90;1.90;;;15.50;47.60;;;;;;6282504;28;20241;-80
2023/10/08 14:11:56;;;;;;;2.10;2.00;;;15.60;47.80;;;;;;6282459;28;20234;-80
2023/10/08 14:14:59;;;;;;;1.90;1.90;;;15.60;49.30;;;;;;6278095;28;20274;-85
2023/10/08 14:18:07;;;;;;;1.83;1.83;;;15.70;49.70;;;;;;6286563;28;20237;-82
2023/10/08 14:21:11;;;;;;;1.70;1.70;;;15.60;49.60;;;;;;6281505;28;20229;-83
2023/10/08 14:24:15;;;;;;;1.80;1.80;;;15.50;49.90;;;;;;6275926;28;20755;-81
2023/10/08 14:27:25;;;;;;;2.10;2.10;;;15.30;47.50;;;;;;6281018;28;20244;-83
2023/10/08 14:30:29;;;;;;;2.80;2.63;;;15.10;47.90;;;;;;6279442;28;20252;-81
2023/10/08 14:33:41;;;;;;;2.00;1.90;;;15.10;48.10;;;;;;6283810;28;20244;-80
2023/10/08 14:43:34;;;;;;;1.87;1.80;;;15.00;49.10;;;;;;6275043;28;20225;-80
2023/10/08 14:46:39;;;;;;;1.70;1.70;;;15.00;48.70;;;;;;6214923;28;20333;-81
2023/10/08 14:49:45;;;;;;;2.13;2.03;;;15.00;49.20;;;;;;6229137;28;20596;-79
2023/10/08 14:52:50;;;;;;;2.00;1.90;;;14.90;49.60;;;;;;6229645;28;20759;-79
2023/10/08 14:56:18;;;;;;;2.17;2.07;;;14.80;48.60;;;;;;6226053;28;20246;-80
2023/10/08 14:59:23;;;;;;;2.40;2.30;;;14.60;48.20;;;;;;6219320;28;20293;-76
2023/10/08 15:02:29;;;;;;;2.40;2.30;;;14.60;48.50;;;;;;6215509;28;20242;-82
2023/10/08 15:05:32;;;;;;;2.10;2.10;;;14.50;49.50;;;;;;6271123;28;20287;-84
2023/10/08 15:08:36;;;;;;;2.20;2.20;;;14.40;49.50;;;;;;6286184;28;20304;-82
2023/10/08 15:11:39;;;;;;;1.73;1.73;;;14.40;49.70;;;;;;6284740;28;20316;-80
2023/10/08 15:14:43;;;;;;;2.37;2.27;;;14.20;49.10;;;;;;6301769;28;20305;-78
2023/10/08 15:17:48;;;;;;;1.90;1.90;;;14.20;49.60;;;;;;6283853;28;20225;-80
2023/10/08 15:20:53;;;;;;;2.10;2.00;;;14.10;49.00;;;;;;6285187;28;20352;-84
2023/10/08 15:23:56;;;;;;;2.30;2.23;;;14.00;50.10;;;;;;6285086;28;20229;-81
2023/10/08 15:27:00;;;;;;;2.80;2.70;;;14.10;50.80;;;;;;6275967;28;20241;-79
2023/10/08 15:30:05;;;;;;;2.33;2.33;;;14.00;51.50;;;;;;6284241;28;20368;-84
2023/10/08 15:33:08;;;;;;;2.60;2.60;;;13.90;49.90;;;;;;6276229;28;20244;-81
2023/10/08 15:36:12;;;;;;;2.30;2.30;;;13.90;50.30;;;;;;6285924;28;20308;-83
2023/10/08 15:39:22;;;;;;;2.37;2.37;;;13.90;50.50;;;;;;6281956;28;20716;-85
2023/10/08 15:42:28;;;;;;;2.33;2.30;;;13.90;50.70;;;;;;6259758;28;20229;-84
2023/10/08 15:45:33;;;;;;;2.23;2.20;;;13.90;51.20;;;;;;6290706;28;20236;-84
2023/10/08 15:48:37;;;;;;;2.27;2.20;;;13.90;51.50;;;;;;6296199;28;20226;-85
2023/10/08 15:51:40;;;;;;;2.30;2.30;;;13.90;52.30;;;;;;6295864;28;20237;-83
2023/10/08 15:54:44;;;;;;;2.23;2.13;;;13.70;51.20;;;;;;6293385;28;20245;-80
2023/10/08 15:57:47;;;;;;;2.30;2.30;;;13.70;51.50;;;;;;6287584;28;20263;-80
2023/10/08 16:00:53;;;;;;;2.17;2.17;;;13.60;51.60;;;;;;6293888;28;20390;-81
2023/10/08 16:03:56;;;;;;;2.20;2.20;;;13.60;52.10;;;;;;6293232;28;20286;-80
2023/10/08 16:07:01;;;;;;;2.47;2.37;;;13.60;52.80;;;;;;6289955;28;20229;-80
2023/10/08 16:10:07;;;;;;;2.00;2.00;;;13.50;53.70;;;;;;6287952;28;20239;-81
2023/10/08 16:13:11;;;;;;;2.37;2.37;;;13.50;52.00;;;;;;6286529;28;20282;-83
2023/10/08 16:16:15;;;;;;;2.60;2.50;;;13.50;52.00;;;;;;6274263;28;20237;-83
2023/10/08 16:19:18;;;;;;;2.50;2.50;;;13.40;52.70;;;;;;6284962;28;20725;-81
2023/10/08 16:22:22;;;;;;;2.03;2.03;;;13.30;53.00;;;;;;6287983;28;20236;-82
2023/10/08 16:25:26;;;;;;;2.70;2.60;;;13.30;54.00;;;;;;6295591;28;20229;-81
2023/10/08 16:28:30;;;;;;;3.03;2.93;;;13.30;54.80;;;;;;6288547;28;20359;-84
2023/10/08 16:31:40;;;;;;;2.40;2.30;;;13.10;54.20;;;;;;6290604;28;20252;-80
2023/10/08 16:34:43;;;;;;;2.60;2.60;;;13.10;54.90;;;;;;6289535;28;20234;-81